Time,TemperatureF,DewpointF,PressureIn,WindDirection,WindDirectionDegrees,WindSpeedMPH,WindSpeedGustMPH,Humidity,HourlyPrecipIn,Conditions,Clouds,dailyrainin,SolarRadiationWatts/m^2,SoftwareType,DateUTC
2013-10-27 00:00:00,56.0,56.0,-100.00,NW,322,1.0,-999.0,99,0.07,,,1.43,1.000000,,2013-10-27 05:00:00,
2013-10-27 00:43:00,56.0,56.0,-100.00,NW,322,1.0,-999.0,99,0.07,,,1.43,1.000000,,2013-10-27 05:43:00,
2013-10-27 00:52:00,56.0,56.0,-100.00,NW,322,1.0,-999.0,99,0.07,,,1.43,1.000000,,2013-10-27 05:52:00,
2013-10-27 01:00:00,57.0,56.0,-100.00,WNW,302,2.0,-999.0,99,0.02,,,1.45,1.000000,,2013-10-27 06:00:00,
2013-10-27 01:42:00,57.0,56.0,-100.00,WNW,302,2.0,-999.0,99,0.02,,,1.45,1.000000,,2013-10-27 06:42:00,
2013-10-27 01:53:00,57.0,56.0,-100.00,WNW,302,2.0,-999.0,99,0.02,,,1.45,1.000000,,2013-10-27 06:53:00,
2013-10-27 02:00:00,56.0,55.0,-100.00,ENE,62,0.0,-999.0,98,0.00,,,1.45,0.000000,,2013-10-27 07:00:00,
2013-10-27 02:42:00,56.0,55.0,-100.00,ENE,62,0.0,-999.0,98,0.00,,,1.45,0.000000,,2013-10-27 07:42:00,
2013-10-27 02:52:00,56.0,55.0,-100.00,ENE,62,0.0,-999.0,98,0.00,,,1.45,0.000000,,2013-10-27 07:52:00,
2013-10-27 03:00:00,56.0,56.0,-100.00,East,91,1.0,-999.0,97,0.00,,,1.45,0.000000,,2013-10-27 08:00:00,
2013-10-27 03:42:00,56.0,56.0,-100.00,East,91,1.0,-999.0,97,0.00,,,1.45,0.000000,,2013-10-27 08:42:00,
2013-10-27 03:52:00,56.0,56.0,-100.00,East,91,1.0,-999.0,97,0.00,,,1.45,0.000000,,2013-10-27 08:52:00,
2013-10-27 04:00:00,58.0,56.0,-100.00,NW,306,3.0,-999.0,95,0.00,,,1.45,0.000000,,2013-10-27 09:00:00,
2013-10-27 04:43:00,58.0,56.0,-100.00,NW,306,3.0,-999.0,95,0.00,,,1.45,0.000000,,2013-10-27 09:43:00,
2013-10-27 04:54:00,58.0,56.0,-100.00,NW,306,3.0,-999.0,95,0.00,,,1.45,0.000000,,2013-10-27 09:54:00,
2013-10-27 05:00:00,57.0,56.0,-100.00,WNW,293,2.0,-999.0,95,0.00,,,1.45,0.000000,,2013-10-27 10:00:00,
2013-10-27 05:42:00,57.0,56.0,-100.00,WNW,293,2.0,-999.0,95,0.00,,,1.45,0.000000,,2013-10-27 10:42:00,
2013-10-27 05:53:00,57.0,56.0,-100.00,WNW,293,2.0,-999.0,95,0.00,,,1.45,0.000000,,2013-10-27 10:53:00,
2013-10-27 06:00:00,57.0,55.0,-100.00,WNW,299,1.0,-999.0,95,0.00,,,1.45,1.000000,,2013-10-27 11:00:00,
2013-10-27 06:42:00,57.0,55.0,-100.00,WNW,299,1.0,-999.0,95,0.00,,,1.45,1.000000,,2013-10-27 11:42:00,
2013-10-27 06:52:00,57.0,55.0,-100.00,WNW,299,1.0,-999.0,95,0.00,,,1.45,1.000000,,2013-10-27 11:52:00,
2013-10-27 07:00:00,56.0,55.0,-100.00,WNW,300,2.0,-999.0,96,0.01,,,1.46,1.000000,,2013-10-27 12:00:00,
2013-10-27 07:42:00,56.0,55.0,-100.00,WNW,300,2.0,-999.0,96,0.01,,,1.46,1.000000,,2013-10-27 12:42:00,
2013-10-27 07:52:00,56.0,55.0,-100.00,WNW,300,2.0,-999.0,96,0.01,,,1.46,1.000000,,2013-10-27 12:52:00,
2013-10-27 08:00:00,55.0,55.0,-100.00,SSE,156,0.0,-999.0,98,0.04,,,1.50,3.000000,,2013-10-27 13:00:00,
2013-10-27 08:42:00,55.0,55.0,-100.00,SSE,156,0.0,-999.0,98,0.04,,,1.50,3.000000,,2013-10-27 13:42:00,
2013-10-27 08:52:00,55.0,55.0,-100.00,SSE,156,0.0,-999.0,98,0.04,,,1.50,3.000000,,2013-10-27 13:52:00,
2013-10-27 09:00:00,56.0,55.0,-100.00,SSE,152,1.0,-999.0,99,0.00,,,1.46,42.000000,,2013-10-27 14:00:00,
2013-10-27 09:42:00,56.0,55.0,-100.00,SSE,152,1.0,-999.0,99,0.00,,,1.46,42.000000,,2013-10-27 14:42:00,
2013-10-27 09:52:00,56.0,55.0,-100.00,SSE,152,1.0,-999.0,99,0.00,,,1.46,42.000000,,2013-10-27 14:52:00,
2013-10-27 10:00:00,57.0,57.0,-100.00,NNW,348,0.0,-999.0,98,0.00,,,1.39,133.000000,,2013-10-27 15:00:00,
2013-10-27 10:45:00,57.0,57.0,-100.00,NNW,348,0.0,-999.0,98,0.00,,,1.39,133.000000,,2013-10-27 15:45:00,
2013-10-27 10:54:00,57.0,57.0,-100.00,NNW,348,0.0,-999.0,98,0.00,,,1.39,133.000000,,2013-10-27 15:54:00,
2013-10-27 11:00:00,59.0,57.0,-100.00,NW,313,1.0,-999.0,92,0.01,,,1.40,186.000000,,2013-10-27 16:00:00,
2013-10-27 11:43:00,59.0,57.0,-100.00,NW,313,1.0,-999.0,92,0.01,,,1.40,186.000000,,2013-10-27 16:43:00,
2013-10-27 11:53:00,59.0,57.0,-100.00,NW,313,1.0,-999.0,92,0.01,,,1.40,186.000000,,2013-10-27 16:53:00,
2013-10-27 12:00:00,61.0,58.0,-100.00,SSE,168,0.0,-999.0,90,0.00,,,1.40,280.000000,,2013-10-27 17:00:00,
2013-10-27 12:43:00,61.0,58.0,-100.00,SSE,168,0.0,-999.0,90,0.00,,,1.40,280.000000,,2013-10-27 17:43:00,
2013-10-27 12:53:00,61.0,58.0,-100.00,SSE,168,0.0,-999.0,90,0.00,,,1.40,280.000000,,2013-10-27 17:53:00,
2013-10-27 13:00:00,61.0,58.0,-100.00,South,176,1.0,-999.0,89,0.00,,,1.34,239.000000,,2013-10-27 18:00:00,
2013-10-27 13:43:00,61.0,58.0,-100.00,South,176,1.0,-999.0,89,0.00,,,1.34,239.000000,,2013-10-27 18:43:00,
2013-10-27 13:52:00,61.0,58.0,-100.00,South,176,1.0,-999.0,89,0.00,,,1.34,239.000000,,2013-10-27 18:52:00,
2013-10-27 14:00:00,63.0,59.0,-100.00,WNW,301,0.0,-999.0,84,0.00,,,1.30,314.000000,,2013-10-27 19:00:00,
2013-10-27 14:42:00,63.0,59.0,-100.00,WNW,301,0.0,-999.0,84,0.00,,,1.30,314.000000,,2013-10-27 19:42:00,
2013-10-27 14:52:00,63.0,59.0,-100.00,WNW,301,0.0,-999.0,84,0.00,,,1.30,314.000000,,2013-10-27 19:52:00,
2013-10-27 15:00:00,66.0,57.0,-100.00,South,177,1.0,-999.0,73,0.00,,,1.18,346.000000,,2013-10-27 20:00:00,
2013-10-27 15:43:00,66.0,57.0,-100.00,South,177,1.0,-999.0,73,0.00,,,1.18,346.000000,,2013-10-27 20:43:00,
2013-10-27 15:52:00,66.0,57.0,-100.00,South,177,1.0,-999.0,73,0.00,,,1.18,346.000000,,2013-10-27 20:52:00,
2013-10-27 16:00:00,66.0,57.0,-100.00,South,171,1.0,-999.0,72,0.00,,,1.06,415.000000,,2013-10-27 21:00:00,
2013-10-27 16:44:00,66.0,57.0,-100.00,South,171,1.0,-999.0,72,0.00,,,1.06,415.000000,,2013-10-27 21:44:00,
2013-10-27 16:54:00,66.0,57.0,-100.00,South,171,1.0,-999.0,72,0.00,,,1.06,415.000000,,2013-10-27 21:54:00,
2013-10-27 17:00:00,68.0,57.0,-100.00,South,174,1.0,-999.0,67,0.00,,,1.01,309.000000,,2013-10-27 22:00:00,
2013-10-27 17:43:00,68.0,57.0,-100.00,South,174,1.0,-999.0,67,0.00,,,1.01,309.000000,,2013-10-27 22:43:00,
2013-10-27 17:54:00,68.0,57.0,-100.00,South,174,1.0,-999.0,67,0.00,,,1.01,309.000000,,2013-10-27 22:54:00,
2013-10-27 18:00:00,64.0,56.0,-100.00,SE,143,0.0,-999.0,75,0.00,,,0.94,33.000000,,2013-10-27 23:00:00,
2013-10-27 18:43:00,64.0,56.0,-100.00,SE,143,0.0,-999.0,75,0.00,,,0.94,33.000000,,2013-10-27 23:43:00,
2013-10-27 18:52:00,64.0,56.0,-100.00,SE,143,0.0,-999.0,75,0.00,,,0.94,33.000000,,2013-10-27 23:52:00,
2013-10-27 19:00:00,61.0,57.0,-100.00,West,270,0.0,-999.0,86,0.00,,,0.81,1.000000,,2013-10-28 00:00:00,
2013-10-27 19:43:00,61.0,57.0,-100.00,West,270,0.0,-999.0,86,0.00,,,0.81,1.000000,,2013-10-28 00:43:00,
2013-10-27 19:52:00,61.0,57.0,-100.00,West,270,0.0,-999.0,86,0.00,,,0.81,1.000000,,2013-10-28 00:52:00,
2013-10-27 20:00:00,60.0,57.0,-100.00,ESE,114,0.0,-999.0,89,0.00,,,0.72,1.000000,,2013-10-28 01:00:00,
2013-10-27 20:42:00,60.0,57.0,-100.00,ESE,114,0.0,-999.0,89,0.00,,,0.72,1.000000,,2013-10-28 01:42:00,
2013-10-27 20:52:00,60.0,57.0,-100.00,ESE,114,0.0,-999.0,89,0.00,,,0.72,1.000000,,2013-10-28 01:52:00,
2013-10-27 21:00:00,58.0,57.0,-100.00,South,173,0.0,-999.0,94,0.00,,,0.48,0.000000,,2013-10-28 02:00:00,
2013-10-27 21:42:00,58.0,57.0,-100.00,South,173,0.0,-999.0,94,0.00,,,0.48,0.000000,,2013-10-28 02:42:00,
2013-10-27 21:53:00,58.0,57.0,-100.00,South,173,0.0,-999.0,94,0.00,,,0.48,0.000000,,2013-10-28 02:53:00,
2013-10-27 22:00:00,59.0,56.0,-100.00,SSE,155,0.0,-999.0,90,0.00,,,0.30,1.000000,,2013-10-28 03:00:00,
2013-10-27 22:44:00,59.0,56.0,-100.00,SSE,155,0.0,-999.0,90,0.00,,,0.30,1.000000,,2013-10-28 03:44:00,
2013-10-27 22:54:00,59.0,56.0,-100.00,SSE,155,0.0,-999.0,90,0.00,,,0.30,1.000000,,2013-10-28 03:54:00,
2013-10-27 23:00:00,59.0,57.0,-100.00,SE,133,0.0,-999.0,93,0.00,,,0.15,1.000000,,2013-10-28 04:00:00,
2013-10-27 23:43:00,59.0,57.0,-100.00,SE,133,0.0,-999.0,93,0.00,,,0.15,1.000000,,2013-10-28 04:43:00,
2013-10-27 23:53:00,59.0,57.0,-100.00,SE,133,0.0,-999.0,93,0.00,,,0.15,1.000000,,2013-10-28 04:53:00,